createdAt,value
2022-08-20T00:01:04.626Z,55.17
2022-08-20T00:03:35.399Z,53.78
2022-08-20T00:06:12.961Z,57.60
2022-08-20T00:08:40.428Z,56.40
2022-08-20T00:11:09.972Z,56.77
2022-08-20T00:13:41.987Z,54.88
2022-08-20T00:16:09.037Z,57.70
2022-08-20T00:18:36.341Z,56.72
2022-08-20T00:21:06.493Z,57.33
2022-08-20T00:23:33.291Z,56.20
2022-08-20T00:26:00.121Z,63.17
2022-08-20T00:28:26.911Z,60.00
2022-08-20T00:30:53.745Z,54.40
2022-08-20T00:33:23.295Z,56.50
2022-08-20T00:35:55.163Z,52.92
2022-08-20T00:38:22.845Z,56.33
2022-08-20T00:40:54.105Z,51.50
2022-08-20T00:43:30.240Z,53.03
2022-08-20T00:45:59.516Z,50.80
2022-08-20T00:48:28.790Z,54.90
2022-08-20T00:51:02.951Z,57.83
2022-08-20T00:53:30.392Z,56.78
2022-08-20T00:55:57.343Z,58.25
2022-08-20T00:58:25.031Z,60.33
2022-08-20T01:00:52.021Z,56.70
2022-08-20T01:03:19.613Z,57.78
2022-08-20T01:05:50.105Z,56.95
2022-08-20T01:08:20.236Z,57.97
2022-08-20T01:10:50.109Z,54.70
2022-08-20T01:13:21.835Z,54.90
2022-08-20T01:15:51.133Z,61.50
2022-08-20T01:18:21.988Z,59.80
2022-08-20T01:20:54.059Z,53.55
2022-08-20T01:23:39.694Z,50.97
2022-08-20T01:26:14.731Z,51.70
2022-08-20T01:28:46.892Z,48.35
2022-08-20T01:31:32.157Z,57.50
2022-08-20T01:34:01.173Z,54.53
2022-08-20T01:36:35.935Z,53.40
2022-08-20T01:39:06.270Z,60.70
2022-08-20T01:42:08.039Z,65.97
2022-08-20T01:44:37.450Z,69.93
2022-08-20T01:47:15.154Z,57.65
2022-08-20T01:49:45.920Z,58.03
2022-08-20T01:52:24.524Z,65.40
2022-08-20T01:54:51.323Z,59.28
2022-08-20T01:57:20.642Z,56.53
2022-08-20T01:59:49.990Z,53.95
2022-08-20T02:02:16.763Z,56.80
2022-08-20T02:04:43.658Z,58.95
2022-08-20T02:07:16.646Z,54.95
2022-08-20T02:09:44.101Z,57.47
2022-08-20T02:12:12.266Z,55.17
2022-08-20T02:14:45.436Z,57.47
2022-08-20T02:17:13.361Z,64.93
2022-08-20T02:19:45.219Z,56.90
2022-08-20T02:22:18.238Z,47.28
2022-08-20T02:24:45.028Z,49.90
2022-08-20T02:27:12.688Z,42.73
2022-08-20T02:29:40.046Z,48.33
2022-08-20T02:32:32.493Z,46.60
2022-08-20T02:34:54.326Z,50.78
2022-08-20T02:37:21.139Z,51.20
2022-08-20T02:39:48.026Z,50.75
2022-08-20T02:42:14.909Z,49.00
2022-08-20T02:44:41.719Z,46.22
2022-08-20T02:47:08.520Z,48.60
2022-08-20T02:49:35.484Z,42.95
2022-08-20T02:52:02.317Z,44.57
2022-08-20T02:54:29.314Z,45.30
2022-08-20T02:56:56.466Z,47.50
2022-08-20T02:59:23.421Z,42.40
2022-08-20T03:02:00.227Z,39.83
2022-08-20T03:04:28.510Z,40.67
2022-08-20T03:06:55.330Z,36.67
2022-08-20T03:09:22.147Z,38.20
2022-08-20T03:11:48.944Z,38.83
2022-08-20T03:14:15.778Z,35.97
2022-08-20T03:16:42.567Z,31.93
2022-08-20T03:19:09.400Z,38.08
2022-08-20T03:21:36.144Z,39.53
2022-08-20T03:24:03.069Z,36.60
2022-08-20T03:26:29.910Z,37.00
2022-08-20T03:28:56.771Z,32.30
2022-08-20T03:31:23.692Z,31.43
2022-08-20T03:33:53.613Z,35.13
2022-08-20T03:36:28.273Z,36.58
2022-08-20T03:39:00.406Z,37.30
2022-08-20T03:41:27.249Z,35.55
2022-08-20T03:43:54.067Z,33.90
2022-08-20T03:46:23.364Z,34.80
2022-08-20T03:48:56.663Z,34.25
2022-08-20T03:51:30.733Z,37.28
2022-08-20T03:53:58.094Z,38.28
2022-08-20T03:56:26.005Z,37.47
2022-08-20T03:58:53.591Z,35.13
2022-08-20T04:01:44.425Z,36.67
2022-08-20T04:04:12.166Z,38.45
2022-08-20T04:06:39.920Z,39.05
2022-08-20T04:09:07.336Z,40.85
2022-08-20T04:11:36.405Z,36.40
2022-08-20T04:14:03.171Z,38.50
2022-08-20T04:16:31.927Z,33.77
2022-08-20T04:19:02.456Z,36.75
2022-08-20T04:21:34.688Z,26.65
2022-08-20T04:24:03.872Z,28.60
2022-08-20T04:26:31.155Z,30.75
2022-08-20T04:28:58.363Z,32.17
2022-08-20T04:31:25.602Z,30.60
2022-08-20T04:33:52.645Z,24.38
2022-08-20T04:36:19.674Z,24.88
2022-08-20T04:38:48.113Z,21.90
2022-08-20T04:41:22.801Z,27.48
2022-08-20T04:43:54.842Z,27.55
2022-08-20T04:46:23.982Z,30.30
2022-08-20T04:48:50.887Z,27.13
2022-08-20T04:51:18.695Z,30.05
2022-08-20T04:53:52.117Z,37.15
2022-08-20T04:56:19.784Z,30.25
2022-08-20T04:58:46.584Z,31.98
2022-08-20T05:01:13.420Z,45.75
2022-08-20T05:03:41.093Z,30.83
2022-08-20T05:06:09.994Z,24.88
2022-08-20T05:08:37.737Z,22.63
2022-08-20T05:11:33.072Z,21.95
2022-08-20T05:13:52.579Z,22.00
2022-08-20T05:16:20.178Z,33.33
2022-08-20T05:18:52.226Z,31.17
2022-08-20T05:21:19.723Z,47.13
2022-08-20T05:23:46.583Z,27.17
2022-08-20T05:26:13.849Z,23.15
2022-08-20T05:28:53.960Z,23.85
2022-08-20T05:31:32.230Z,20.88
2022-08-20T05:34:01.757Z,22.92
2022-08-20T05:36:28.926Z,21.55
2022-08-20T05:38:55.782Z,20.37
2022-08-20T05:41:29.728Z,22.85
2022-08-20T05:44:00.677Z,21.60
2022-08-20T05:46:28.121Z,29.48
2022-08-20T05:48:54.906Z,23.23
2022-08-20T05:51:26.846Z,24.50
2022-08-20T05:53:53.678Z,21.77
2022-08-20T05:56:21.671Z,19.98
2022-08-20T05:58:54.212Z,30.42
2022-08-20T06:01:21.675Z,34.35
2022-08-20T06:03:48.887Z,21.88
2022-08-20T06:06:20.741Z,20.75
2022-08-20T06:09:02.798Z,19.05
2022-08-20T06:11:31.705Z,22.02
2022-08-20T06:14:02.000Z,20.75
2022-08-20T06:16:29.002Z,16.57
2022-08-20T06:18:58.191Z,20.75
2022-08-20T06:21:25.480Z,21.77
2022-08-20T06:23:56.913Z,19.40
2022-08-20T06:26:30.156Z,21.25
2022-08-20T06:28:58.649Z,21.30
2022-08-20T06:31:25.515Z,24.95
2022-08-20T06:33:52.318Z,28.10
2022-08-20T06:36:19.821Z,29.38
2022-08-20T06:38:46.687Z,23.42
2022-08-20T06:41:13.683Z,24.52
2022-08-20T06:43:40.943Z,21.65
2022-08-20T06:46:07.778Z,21.13
2022-08-20T06:48:35.002Z,23.52
2022-08-20T06:51:01.856Z,22.25
2022-08-20T06:53:28.733Z,22.52
2022-08-20T06:55:57.765Z,24.63
2022-08-20T06:58:36.669Z,22.95
2022-08-20T07:01:09.760Z,22.90
2022-08-20T07:03:54.192Z,26.08
2022-08-20T07:06:22.834Z,22.83
2022-08-20T07:08:49.649Z,24.40
2022-08-20T07:11:16.433Z,22.85
2022-08-20T07:13:43.185Z,23.33
2022-08-20T07:16:09.986Z,20.95
2022-08-20T07:18:36.785Z,23.77
2022-08-20T07:21:03.978Z,23.30
2022-08-20T07:23:30.802Z,23.00
2022-08-20T07:25:57.805Z,23.23
2022-08-20T07:28:26.540Z,22.08
2022-08-20T07:30:56.778Z,21.85
2022-08-20T07:33:28.289Z,20.85
2022-08-20T07:35:59.518Z,22.05
2022-08-20T07:38:28.050Z,17.85
2022-08-20T07:40:58.382Z,18.70
2022-08-20T07:43:25.551Z,18.30
2022-08-20T07:45:54.297Z,20.10
2022-08-20T07:48:31.419Z,19.60
2022-08-20T07:51:02.214Z,19.67
2022-08-20T07:53:33.516Z,15.48
2022-08-20T07:56:11.470Z,14.32
2022-08-20T07:58:45.223Z,16.73
2022-08-20T08:01:12.150Z,15.88
2022-08-20T08:03:40.947Z,14.82
2022-08-20T08:06:28.692Z,14.20
2022-08-20T08:09:07.510Z,12.13
2022-08-20T08:11:38.080Z,11.77
2022-08-20T08:14:07.993Z,18.13
2022-08-20T08:16:35.745Z,14.25
2022-08-20T08:19:06.994Z,13.05
2022-08-20T08:21:33.829Z,11.37
2022-08-20T08:24:00.722Z,11.68
2022-08-20T08:26:27.599Z,9.73
2022-08-20T08:28:54.399Z,10.25
2022-08-20T08:31:21.214Z,9.07
2022-08-20T08:33:48.065Z,10.90
2022-08-20T08:36:16.223Z,9.90
2022-08-20T08:38:45.394Z,9.18
2022-08-20T08:41:19.812Z,10.10
2022-08-20T08:43:52.492Z,11.38
2022-08-20T08:46:23.657Z,9.57
2022-08-20T08:48:52.630Z,11.75
2022-08-20T08:51:30.599Z,8.40
2022-08-20T08:53:57.767Z,10.13
2022-08-20T08:56:28.464Z,8.02
2022-08-20T08:59:00.734Z,7.60
2022-08-20T09:01:54.850Z,9.45
2022-08-20T09:04:21.709Z,6.88
2022-08-20T09:06:52.371Z,5.60
2022-08-20T09:09:30.965Z,7.43
2022-08-20T09:12:07.811Z,7.35
2022-08-20T09:14:35.559Z,6.30
2022-08-20T09:17:02.914Z,7.40
2022-08-20T09:19:29.822Z,6.40
2022-08-20T09:21:57.806Z,6.30
2022-08-20T09:24:24.787Z,7.85
2022-08-20T09:26:51.662Z,7.13
2022-08-20T09:29:18.587Z,9.35
2022-08-20T09:31:45.369Z,5.20
2022-08-20T09:34:13.528Z,8.60
2022-08-20T09:36:40.323Z,9.32
2022-08-20T09:39:07.132Z,6.80
2022-08-20T09:41:34.503Z,6.03
2022-08-20T09:44:02.232Z,6.82
2022-08-20T09:46:29.139Z,5.10
2022-08-20T09:51:42.833Z,6.47
2022-08-20T09:56:58.618Z,5.63
2022-08-20T09:59:26.729Z,5.80
2022-08-20T10:01:53.811Z,5.90
2022-08-20T10:04:20.819Z,5.45
2022-08-20T10:06:47.933Z,4.63
2022-08-20T10:09:14.964Z,7.30
2022-08-20T10:14:28.795Z,5.05
2022-08-20T10:17:00.904Z,4.97
2022-08-20T10:19:29.302Z,5.53
2022-08-20T10:24:25.621Z,4.30
2022-08-20T10:26:56.096Z,4.50
2022-08-20T10:29:23.077Z,6.28
2022-08-20T10:31:50.152Z,6.67
2022-08-20T10:34:17.203Z,5.70
2022-08-20T10:36:44.150Z,5.40
2022-08-20T10:39:11.116Z,4.60
2022-08-20T10:41:39.207Z,5.90
2022-08-20T10:44:07.091Z,5.00
2022-08-20T10:46:34.607Z,5.20
2022-08-20T10:51:48.191Z,6.13
2022-08-20T10:54:15.559Z,5.65
2022-08-20T10:56:42.979Z,4.45
2022-08-20T10:59:09.799Z,5.43
2022-08-20T11:01:36.961Z,4.85
2022-08-20T11:04:04.081Z,4.90
2022-08-20T11:06:30.845Z,5.57
2022-08-20T11:08:57.587Z,5.10
2022-08-20T11:11:24.489Z,6.70
2022-08-20T11:16:37.991Z,4.60
2022-08-20T11:21:51.601Z,6.05
2022-08-20T11:24:18.405Z,5.80
2022-08-20T11:26:48.068Z,6.38
2022-08-20T11:32:03.766Z,4.88
2022-08-20T11:37:21.991Z,5.00
2022-08-20T11:39:48.904Z,5.43
2022-08-20T11:42:15.943Z,5.50
2022-08-20T11:44:43.165Z,4.53
2022-08-20T11:47:20.202Z,4.28
2022-08-20T11:49:46.989Z,6.68
2022-08-20T11:52:13.789Z,5.28
2022-08-20T11:54:42.207Z,4.78
2022-08-20T11:57:08.958Z,4.80
2022-08-20T11:59:35.754Z,4.43
2022-08-20T12:04:49.951Z,4.90
2022-08-20T12:07:19.133Z,4.63
2022-08-20T12:09:50.656Z,4.90
2022-08-20T12:12:19.878Z,4.78
2022-08-20T12:14:46.627Z,4.47
2022-08-20T12:17:20.040Z,6.93
2022-08-20T12:19:47.014Z,4.25
2022-08-20T12:22:21.386Z,5.20
2022-08-20T12:24:53.493Z,5.95
2022-08-20T12:27:27.167Z,6.05
2022-08-20T12:32:43.225Z,4.25
2022-08-20T12:35:12.140Z,6.60
2022-08-20T12:37:39.362Z,5.80
2022-08-20T12:40:09.830Z,4.90
2022-08-20T12:42:37.679Z,6.90
2022-08-20T12:45:05.024Z,9.40
2022-08-20T12:50:26.580Z,7.10
2022-08-20T12:52:56.698Z,5.30
2022-08-20T12:55:24.502Z,6.07
2022-08-20T13:00:47.478Z,6.33
2022-08-20T13:03:18.496Z,8.48
2022-08-20T13:05:45.270Z,5.93
2022-08-20T13:10:59.343Z,6.25
2022-08-20T13:16:12.878Z,5.88
2022-08-20T13:21:07.053Z,7.50
2022-08-20T13:23:33.830Z,5.32
2022-08-20T13:26:04.207Z,5.30
2022-08-20T13:28:31.708Z,5.95
2022-08-20T13:30:58.557Z,5.10
2022-08-20T13:33:25.436Z,5.03
2022-08-20T13:35:52.725Z,7.10
2022-08-20T13:41:06.377Z,5.10
2022-08-20T13:46:19.844Z,8.65
2022-08-20T13:48:46.729Z,7.70
2022-08-20T13:51:13.493Z,5.57
2022-08-20T13:56:32.670Z,6.77
2022-08-20T14:01:46.236Z,11.05
2022-08-20T14:04:13.065Z,6.80
2022-08-20T14:06:39.860Z,4.90
2022-08-20T14:09:06.689Z,8.38
2022-08-20T14:11:33.485Z,9.77
2022-08-20T14:14:00.264Z,6.97
2022-08-20T14:18:53.741Z,8.00
2022-08-20T14:21:20.563Z,6.65
2022-08-20T14:26:14.109Z,9.60
2022-08-20T14:28:40.852Z,9.75
2022-08-20T14:31:07.634Z,6.57
2022-08-20T14:33:36.098Z,6.38
2022-08-20T14:38:50.844Z,7.15
2022-08-20T14:44:05.444Z,7.70
2022-08-20T14:46:32.339Z,7.20
2022-08-20T14:48:59.097Z,8.43
2022-08-20T14:51:25.874Z,8.50
2022-08-20T14:53:52.678Z,10.85
2022-08-20T14:56:19.476Z,7.80
2022-08-20T14:58:46.250Z,9.82
2022-08-20T15:01:13.145Z,8.15
2022-08-20T15:03:39.986Z,7.63
2022-08-20T15:08:54.368Z,7.03
2022-08-20T15:14:08.609Z,8.80
2022-08-20T15:16:35.624Z,9.38
2022-08-20T15:19:02.519Z,8.25
2022-08-20T15:21:29.292Z,8.30
2022-08-20T15:24:19.092Z,10.80
2022-08-20T15:29:33.265Z,9.93
2022-08-20T15:32:00.093Z,8.48
2022-08-20T15:34:26.867Z,12.85
2022-08-20T15:36:53.668Z,11.10
2022-08-20T15:39:20.446Z,7.30
2022-08-20T15:41:47.231Z,9.10
2022-08-20T15:44:14.015Z,7.70
2022-08-20T15:46:40.854Z,9.15
2022-08-20T15:49:12.489Z,8.55
2022-08-20T15:51:46.260Z,9.00
2022-08-20T15:54:26.323Z,7.90
2022-08-20T15:57:07.239Z,9.57
2022-08-20T15:59:33.975Z,5.72
2022-08-20T16:02:21.594Z,8.02
2022-08-20T16:11:17.114Z,8.15
2022-08-20T16:13:43.880Z,10.82
2022-08-20T16:19:03.607Z,10.18
2022-08-20T16:21:37.286Z,7.68
2022-08-20T16:24:07.561Z,8.35
2022-08-20T16:27:05.625Z,10.50
2022-08-20T16:29:54.156Z,6.80
2022-08-20T16:32:33.955Z,11.25
2022-08-20T16:35:26.231Z,7.43
2022-08-20T16:38:21.122Z,11.77
2022-08-20T16:44:18.994Z,11.07
2022-08-20T16:46:58.905Z,7.63
2022-08-20T16:49:28.050Z,8.18
2022-08-20T16:51:54.846Z,7.93
2022-08-20T16:54:29.330Z,7.80
2022-08-20T16:57:02.046Z,8.90
2022-08-20T16:59:28.915Z,10.30
2022-08-20T17:02:08.326Z,7.80
2022-08-20T17:07:46.228Z,9.15
2022-08-20T17:10:18.001Z,10.45
2022-08-20T17:12:45.570Z,8.90
2022-08-20T17:15:20.845Z,8.00
2022-08-20T17:17:48.686Z,12.73
2022-08-20T17:23:16.723Z,10.35
2022-08-20T17:25:45.127Z,11.60
2022-08-20T17:28:15.991Z,10.07
2022-08-20T17:33:34.796Z,12.07
2022-08-20T17:36:08.162Z,10.27
2022-08-20T17:38:39.912Z,9.90
2022-08-20T17:41:22.020Z,11.45
2022-08-20T17:46:55.841Z,9.10
2022-08-20T17:49:36.308Z,8.80
2022-08-20T17:52:11.326Z,10.10
2022-08-20T17:54:42.314Z,11.88
2022-08-20T17:57:14.862Z,9.70
2022-08-20T18:00:00.695Z,10.57
2022-08-20T18:02:29.409Z,9.73
2022-08-20T18:04:56.312Z,9.80
2022-08-20T18:07:44.844Z,10.55
2022-08-20T18:10:20.444Z,10.45
2022-08-20T18:12:59.122Z,8.27
2022-08-20T18:15:40.815Z,9.07
2022-08-20T18:18:33.855Z,6.90
2022-08-20T18:21:31.433Z,9.25
2022-08-20T18:24:08.059Z,8.97
2022-08-20T18:26:49.072Z,10.20
2022-08-20T18:29:24.376Z,8.00
2022-08-20T18:31:55.585Z,11.38
2022-08-20T18:34:38.246Z,9.82
2022-08-20T18:37:06.561Z,9.55
2022-08-20T18:39:39.491Z,10.07
2022-08-20T18:44:54.874Z,9.23
2022-08-20T18:47:36.090Z,7.37
2022-08-20T18:53:13.055Z,8.95
2022-08-20T18:55:43.416Z,10.40
2022-08-20T18:58:27.939Z,10.23
2022-08-20T19:00:54.858Z,11.05
2022-08-20T19:06:36.360Z,11.05
2022-08-20T19:09:25.429Z,9.60
2022-08-20T19:12:06.977Z,9.95
2022-08-20T19:21:01.851Z,9.70
2022-08-20T19:23:38.174Z,8.70
2022-08-20T19:26:25.102Z,7.72
2022-08-20T19:29:15.702Z,7.47
2022-08-20T19:31:43.457Z,9.77
2022-08-20T19:34:20.169Z,14.20
2022-08-20T19:37:32.764Z,14.05
2022-08-20T19:40:05.661Z,12.05
2022-08-20T19:42:42.112Z,8.95
2022-08-20T19:45:24.052Z,11.70
2022-08-20T19:51:32.358Z,14.85
2022-08-20T19:53:59.218Z,11.85
2022-08-20T19:59:21.352Z,9.50
2022-08-20T20:01:56.881Z,10.20
2022-08-20T20:04:27.969Z,8.32
2022-08-20T20:06:57.003Z,12.80
2022-08-20T20:09:27.392Z,9.05
2022-08-20T20:12:22.539Z,10.25
2022-08-20T20:14:53.010Z,10.32
2022-08-20T20:17:27.193Z,8.20
2022-08-20T20:20:14.313Z,10.53
2022-08-20T20:23:13.600Z,13.13
2022-08-20T20:31:50.866Z,11.47
2022-08-20T20:34:23.220Z,8.90
2022-08-20T20:40:02.100Z,9.48
2022-08-20T20:42:30.191Z,9.02
2022-08-20T20:44:57.238Z,8.90
2022-08-20T20:56:35.522Z,8.43
2022-08-20T20:59:06.553Z,9.02
2022-08-20T21:01:48.824Z,8.63
2022-08-20T21:04:17.399Z,11.87
2022-08-20T21:06:44.207Z,12.75
2022-08-20T21:11:57.745Z,12.70
2022-08-20T21:14:24.514Z,10.77
2022-08-20T21:17:01.080Z,9.98
2022-08-20T21:19:28.568Z,6.38
2022-08-20T21:21:55.879Z,11.20
2022-08-20T21:24:22.954Z,9.90
2022-08-20T21:29:37.519Z,9.18
2022-08-20T21:32:04.679Z,8.43
2022-08-20T21:34:31.532Z,8.48
2022-08-20T21:36:58.348Z,9.25
2022-08-20T21:39:26.148Z,11.60
2022-08-20T21:42:02.876Z,7.90
2022-08-20T21:44:32.000Z,7.75
2022-08-20T21:46:59.794Z,10.70
2022-08-20T21:52:15.740Z,7.80
2022-08-20T21:57:31.730Z,8.63
2022-08-20T21:59:59.056Z,9.70
2022-08-20T22:02:27.467Z,9.95
2022-08-20T22:04:54.738Z,8.88
2022-08-20T22:07:22.073Z,10.60
2022-08-20T22:09:48.961Z,9.82
2022-08-20T22:15:07.159Z,11.13
2022-08-20T22:17:34.265Z,10.18
2022-08-20T22:20:01.058Z,9.87
2022-08-20T22:22:27.826Z,9.68
2022-08-20T22:24:54.725Z,10.67
2022-08-20T22:27:21.536Z,13.38
2022-08-20T22:32:51.826Z,10.23
2022-08-20T22:35:19.589Z,10.10
2022-08-20T22:37:46.724Z,9.55
2022-08-20T22:43:00.172Z,11.05
2022-08-20T22:48:17.508Z,11.93
2022-08-20T22:50:44.981Z,11.38
2022-08-20T22:53:13.527Z,10.85
2022-08-20T22:58:07.327Z,10.63
2022-08-20T23:00:35.079Z,8.63
2022-08-20T23:03:03.152Z,10.70
2022-08-20T23:05:32.512Z,9.55
2022-08-20T23:10:47.039Z,7.55
2022-08-20T23:13:18.116Z,8.82
2022-08-20T23:15:45.557Z,10.17
2022-08-20T23:18:15.862Z,9.10
2022-08-20T23:20:46.386Z,11.20
2022-08-20T23:23:13.162Z,10.70
2022-08-20T23:28:28.153Z,8.57
2022-08-20T23:30:55.078Z,8.43
2022-08-20T23:33:22.005Z,11.35
2022-08-20T23:35:49.154Z,10.63
2022-08-20T23:38:16.058Z,9.88
2022-08-20T23:40:42.992Z,9.63
2022-08-20T23:46:01.339Z,8.77
2022-08-20T23:48:28.349Z,8.73
2022-08-20T23:50:55.165Z,10.48
2022-08-20T23:53:21.955Z,9.27
2022-08-20T23:55:48.810Z,10.00
2022-08-20T23:58:15.670Z,9.30
